createdAt,value
2022-11-25T00:01:56.147Z,2.50
2022-11-25T00:04:24.426Z,2.60
2022-11-25T00:06:53.319Z,2.33
2022-11-25T00:09:21.792Z,2.20
2022-11-25T00:11:50.654Z,2.50
2022-11-25T00:14:18.983Z,2.70
2022-11-25T00:16:48.855Z,3.63
2022-11-25T00:19:18.051Z,5.80
2022-11-25T00:21:46.418Z,5.47
2022-11-25T00:24:15.997Z,5.53
2022-11-25T00:26:44.322Z,5.20
2022-11-25T00:29:13.250Z,6.13
2022-11-25T00:31:42.052Z,9.17
2022-11-25T00:34:13.573Z,10.50
2022-11-25T00:36:41.956Z,13.00
2022-11-25T00:39:12.242Z,10.13
2022-11-25T00:41:59.028Z,11.13
2022-11-25T00:44:36.972Z,9.77
2022-11-25T00:47:19.926Z,8.00
2022-11-25T00:49:50.377Z,7.87
2022-11-25T00:52:23.366Z,7.90
2022-11-25T00:54:52.982Z,5.27
2022-11-25T00:57:22.748Z,3.07
2022-11-25T00:59:51.170Z,3.37
2022-11-25T01:02:22.613Z,6.20
2022-11-25T01:04:51.426Z,3.23
2022-11-25T01:07:19.831Z,4.50
2022-11-25T01:09:48.293Z,3.30
2022-11-25T01:12:16.637Z,3.17
2022-11-25T01:14:44.956Z,2.97
2022-11-25T01:17:15.594Z,11.77
2022-11-25T01:19:43.961Z,12.20
2022-11-25T01:22:12.291Z,7.60
2022-11-25T01:24:44.020Z,6.13
2022-11-25T01:27:12.328Z,6.20
2022-11-25T01:29:41.943Z,5.67
2022-11-25T01:32:10.289Z,5.93
2022-11-25T01:34:40.179Z,5.60
2022-11-25T01:37:08.486Z,5.30
2022-11-25T01:39:36.859Z,6.13
2022-11-25T01:42:05.257Z,4.77
2022-11-25T01:44:34.049Z,5.57
2022-11-25T01:47:12.859Z,6.50
2022-11-25T01:49:51.611Z,5.43
2022-11-25T01:52:29.214Z,5.20
2022-11-25T01:55:00.214Z,5.60
2022-11-25T01:57:48.180Z,4.33
2022-11-25T02:00:17.082Z,2.70
2022-11-25T02:02:50.139Z,3.37
2022-11-25T02:05:28.448Z,2.10
2022-11-25T02:08:00.793Z,2.73
2022-11-25T02:10:30.344Z,3.50
2022-11-25T02:12:58.862Z,2.63
2022-11-25T02:15:27.145Z,2.80
2022-11-25T02:17:55.454Z,2.37
2022-11-25T02:20:24.081Z,2.50
2022-11-25T02:23:08.517Z,2.90
2022-11-25T02:25:38.712Z,2.63
2022-11-25T02:28:16.721Z,1.70
2022-11-25T02:30:45.415Z,2.37
2022-11-25T02:33:14.604Z,1.97
2022-11-25T02:35:55.560Z,2.33
2022-11-25T02:38:25.775Z,3.70
2022-11-25T02:41:04.202Z,14.37
2022-11-25T02:43:33.717Z,10.43
2022-11-25T02:46:16.162Z,11.30
2022-11-25T02:49:08.047Z,17.47
2022-11-25T02:51:36.200Z,15.70
2022-11-25T02:54:05.242Z,17.93
2022-11-25T02:56:34.312Z,17.43
2022-11-25T02:59:02.892Z,16.07
2022-11-25T03:01:31.826Z,10.83
2022-11-25T03:04:00.615Z,14.23
2022-11-25T03:06:29.517Z,18.43
2022-11-25T03:08:58.160Z,17.93
2022-11-25T03:11:47.041Z,13.13
2022-11-25T03:14:16.527Z,13.43
2022-11-25T03:16:45.033Z,7.13
2022-11-25T03:19:13.428Z,2.90
2022-11-25T03:21:41.647Z,2.67
2022-11-25T03:24:09.947Z,2.60
2022-11-25T03:26:38.284Z,8.83
2022-11-25T03:29:06.622Z,8.03
2022-11-25T03:31:36.362Z,6.37
2022-11-25T03:34:04.690Z,6.60
2022-11-25T03:36:33.119Z,6.20
2022-11-25T03:39:01.874Z,4.53
2022-11-25T03:41:30.242Z,6.17
2022-11-25T03:43:58.930Z,7.00
2022-11-25T03:46:27.874Z,6.17
2022-11-25T03:48:56.671Z,4.90
2022-11-25T03:51:26.032Z,4.53
2022-11-25T03:53:55.108Z,3.20
2022-11-25T03:56:25.271Z,6.33
2022-11-25T03:58:53.690Z,7.27
2022-11-25T04:01:23.795Z,10.53
2022-11-25T04:03:52.190Z,9.93
2022-11-25T04:06:22.312Z,18.33
2022-11-25T04:08:53.020Z,8.30
2022-11-25T04:11:22.522Z,5.97
2022-11-25T04:13:57.158Z,6.33
2022-11-25T04:16:25.727Z,7.50
2022-11-25T04:18:55.351Z,9.27
2022-11-25T04:21:24.957Z,8.90
2022-11-25T04:23:53.612Z,8.37
2022-11-25T04:26:22.551Z,6.13
2022-11-25T04:28:52.953Z,5.47
2022-11-25T04:31:21.692Z,3.60
2022-11-25T04:33:52.695Z,2.33
2022-11-25T04:36:24.051Z,3.40
2022-11-25T04:38:52.633Z,3.43
2022-11-25T04:41:23.650Z,2.50
2022-11-25T04:43:52.040Z,2.60
2022-11-25T04:46:22.273Z,3.10
2022-11-25T04:48:52.491Z,2.90
2022-11-25T04:51:23.077Z,1.77
2022-11-25T04:53:58.051Z,1.60
2022-11-25T04:56:27.701Z,1.67
2022-11-25T04:59:15.765Z,1.60
2022-11-25T05:01:48.938Z,4.23
2022-11-25T05:04:36.067Z,1.70
2022-11-25T05:07:05.052Z,1.37
2022-11-25T05:09:33.583Z,1.47
2022-11-25T05:12:20.152Z,1.70
2022-11-25T05:14:49.206Z,1.00
2022-11-25T05:17:20.183Z,1.50
2022-11-25T05:19:49.388Z,1.60
2022-11-25T05:22:20.612Z,1.27
2022-11-25T05:24:48.972Z,1.50
2022-11-25T05:27:18.312Z,1.80
2022-11-25T05:29:51.412Z,4.87
2022-11-25T05:32:22.963Z,2.07
2022-11-25T05:34:51.535Z,1.47
2022-11-25T05:37:24.109Z,1.80
2022-11-25T05:40:00.260Z,1.57
2022-11-25T05:42:47.260Z,1.03
2022-11-25T05:45:15.669Z,1.40
2022-11-25T05:47:44.890Z,1.40
2022-11-25T05:50:19.759Z,1.30
2022-11-25T05:53:04.410Z,1.40
2022-11-25T05:55:33.682Z,1.50
2022-11-25T05:58:06.426Z,1.67
2022-11-25T06:00:36.122Z,1.57
2022-11-25T06:03:09.924Z,1.97
2022-11-25T06:05:38.638Z,1.80
2022-11-25T06:08:07.700Z,4.43
2022-11-25T06:10:39.772Z,3.63
2022-11-25T06:13:09.133Z,3.20
2022-11-25T06:15:42.009Z,4.37
2022-11-25T06:18:11.850Z,3.30
2022-11-25T06:20:40.441Z,2.60
2022-11-25T06:23:10.189Z,2.30
2022-11-25T06:25:39.588Z,2.03
2022-11-25T06:28:13.195Z,1.87
2022-11-25T06:30:45.765Z,2.20
2022-11-25T06:33:28.157Z,2.27
2022-11-25T06:36:00.233Z,2.77
2022-11-25T06:38:28.632Z,2.87
2022-11-25T06:41:01.899Z,3.10
2022-11-25T06:43:30.450Z,2.53
2022-11-25T06:46:03.695Z,2.50
2022-11-25T06:48:32.407Z,2.47
2022-11-25T06:51:02.147Z,3.27
2022-11-25T06:53:31.284Z,3.97
2022-11-25T06:56:13.339Z,4.20
2022-11-25T06:58:42.001Z,3.23
2022-11-25T07:01:15.745Z,3.23
2022-11-25T07:03:44.704Z,3.10
2022-11-25T07:06:14.942Z,2.83
2022-11-25T07:08:43.369Z,2.90
2022-11-25T07:11:19.231Z,4.53
2022-11-25T07:13:47.777Z,4.90
2022-11-25T07:16:16.428Z,3.90
2022-11-25T07:18:44.893Z,3.27
2022-11-25T07:21:18.319Z,3.23
2022-11-25T07:23:47.056Z,2.93
2022-11-25T07:26:18.254Z,2.33
2022-11-25T07:28:46.720Z,1.90
2022-11-25T07:31:23.935Z,2.07
2022-11-25T07:33:54.801Z,2.20
2022-11-25T07:36:23.583Z,1.80
2022-11-25T07:38:52.107Z,1.70
2022-11-25T07:41:22.167Z,2.00
2022-11-25T07:43:55.298Z,2.00
2022-11-25T07:46:28.409Z,2.43
2022-11-25T07:48:58.283Z,3.10
2022-11-25T07:51:32.046Z,2.63
2022-11-25T07:54:01.354Z,2.93
2022-11-25T07:56:29.715Z,2.97
2022-11-25T07:58:59.031Z,3.00
2022-11-25T08:01:27.461Z,3.20
2022-11-25T08:03:56.057Z,3.37
2022-11-25T08:21:07.284Z,2.80
2022-11-25T08:23:36.502Z,2.93
2022-11-25T08:26:06.204Z,3.37
2022-11-25T08:28:34.908Z,3.93
2022-11-25T08:31:16.177Z,4.73
2022-11-25T08:33:44.572Z,5.07
2022-11-25T08:36:13.047Z,5.83
2022-11-25T08:38:41.460Z,3.70
2022-11-25T08:41:14.353Z,4.23
2022-11-25T08:43:43.005Z,2.17
2022-11-25T08:46:14.181Z,2.10
2022-11-25T08:48:42.715Z,1.80
2022-11-25T08:51:16.052Z,3.60
2022-11-25T08:53:44.613Z,2.97
2022-11-25T08:56:13.020Z,1.57
2022-11-25T08:58:41.505Z,1.50
2022-11-25T09:01:11.831Z,1.40
2022-11-25T09:03:42.329Z,1.23
2022-11-25T09:06:11.018Z,1.80
2022-11-25T09:08:39.996Z,1.70
2022-11-25T09:11:08.606Z,1.90
2022-11-25T09:13:36.997Z,1.20
2022-11-25T09:16:07.143Z,1.37
2022-11-25T09:18:37.400Z,1.07
2022-11-25T09:21:12.535Z,1.03
2022-11-25T09:23:40.994Z,1.37
2022-11-25T09:26:19.151Z,0.93
2022-11-25T09:28:47.643Z,0.67
2022-11-25T09:31:16.039Z,0.87
2022-11-25T09:33:45.652Z,1.33
2022-11-25T09:36:14.937Z,13.13
2022-11-25T09:38:45.968Z,2.47
2022-11-25T09:42:03.695Z,2.37
2022-11-25T09:45:28.375Z,1.63
2022-11-25T09:48:01.103Z,1.00
2022-11-25T09:50:48.158Z,0.80
2022-11-25T09:53:44.052Z,2.20
2022-11-25T09:56:28.633Z,0.90
2022-11-25T09:59:02.387Z,1.50
2022-11-25T10:01:31.332Z,0.87
2022-11-25T10:04:08.284Z,1.20
2022-11-25T10:06:37.842Z,0.90
2022-11-25T10:09:26.922Z,1.00
2022-11-25T10:12:26.062Z,1.43
2022-11-25T10:14:59.932Z,4.87
2022-11-25T10:17:51.035Z,4.10
2022-11-25T10:20:26.499Z,2.43
2022-11-25T10:22:56.694Z,33.27
2022-11-25T10:25:26.389Z,6.30
2022-11-25T10:28:01.946Z,1.67
2022-11-25T10:30:51.093Z,0.83
2022-11-25T10:33:25.354Z,0.80
2022-11-25T10:36:18.274Z,0.90
2022-11-25T10:39:08.081Z,0.90
2022-11-25T10:41:47.188Z,1.30
2022-11-25T10:44:27.261Z,1.03
2022-11-25T10:47:14.654Z,0.90
2022-11-25T10:49:52.164Z,0.80
2022-11-25T10:52:22.491Z,0.90
2022-11-25T10:55:11.013Z,0.63
2022-11-25T10:57:39.479Z,0.50
2022-11-25T11:00:14.089Z,0.60
2022-11-25T11:02:49.245Z,1.10
2022-11-25T11:05:26.638Z,1.30
2022-11-25T11:08:11.226Z,1.30
2022-11-25T11:10:43.358Z,1.50
2022-11-25T11:13:25.541Z,1.07
2022-11-25T11:15:54.474Z,0.47
2022-11-25T11:18:27.060Z,1.20
2022-11-25T11:20:59.373Z,1.03
2022-11-25T11:23:28.548Z,0.83
2022-11-25T11:26:10.397Z,0.90
2022-11-25T11:28:43.150Z,0.90
2022-11-25T11:31:29.852Z,1.13
2022-11-25T11:34:09.570Z,0.90
2022-11-25T11:36:58.259Z,0.70
2022-11-25T11:39:33.273Z,0.80
2022-11-25T11:42:05.038Z,0.70
2022-11-25T11:44:54.552Z,0.97
2022-11-25T11:48:10.405Z,0.80
2022-11-25T11:50:46.986Z,0.43
2022-11-25T11:53:23.854Z,1.07
2022-11-25T11:56:39.055Z,0.70
2022-11-25T11:59:24.897Z,0.70
2022-11-25T12:01:58.620Z,0.70
2022-11-25T12:04:48.145Z,0.67
2022-11-25T12:07:21.760Z,1.37
2022-11-25T12:10:26.827Z,0.77
2022-11-25T12:13:00.873Z,1.00
2022-11-25T12:15:56.190Z,0.80
2022-11-25T12:18:45.190Z,1.00
2022-11-25T12:21:27.868Z,1.10
2022-11-25T12:24:10.593Z,1.10
2022-11-25T12:26:57.187Z,1.47
2022-11-25T12:29:53.352Z,1.17
2022-11-25T12:32:53.993Z,0.90
2022-11-25T12:35:43.872Z,1.17
2022-11-25T12:38:47.490Z,1.50
2022-11-25T12:41:31.153Z,1.23
2022-11-25T12:44:07.631Z,1.40
2022-11-25T12:46:47.763Z,1.30
2022-11-25T12:49:20.543Z,0.90
2022-11-25T12:52:12.449Z,0.90
2022-11-25T12:55:19.221Z,1.30
2022-11-25T12:58:07.994Z,1.40
2022-11-25T13:01:07.461Z,3.00
2022-11-25T13:04:04.330Z,6.63
2022-11-25T13:07:00.022Z,4.13
2022-11-25T13:09:47.286Z,3.83
2022-11-25T13:12:28.211Z,2.40
2022-11-25T13:15:21.129Z,3.37
2022-11-25T13:17:50.801Z,5.50
2022-11-25T13:20:28.191Z,1.90
2022-11-25T13:23:05.710Z,1.20
2022-11-25T13:25:34.275Z,1.90
2022-11-25T13:28:04.511Z,1.93
2022-11-25T13:30:32.988Z,1.30
2022-11-25T13:33:13.529Z,1.50
2022-11-25T13:35:44.934Z,1.57
2022-11-25T13:38:51.984Z,1.50
2022-11-25T13:41:20.372Z,1.67
2022-11-25T13:44:06.138Z,1.70
2022-11-25T13:46:45.596Z,1.20
2022-11-25T13:49:33.911Z,1.33
2022-11-25T13:52:36.673Z,1.43
2022-11-25T13:55:32.337Z,1.97
2022-11-25T13:58:20.741Z,1.43
2022-11-25T14:00:58.165Z,1.20
2022-11-25T14:03:29.806Z,1.77
2022-11-25T14:06:40.254Z,1.93
2022-11-25T14:09:24.446Z,1.87
2022-11-25T14:12:03.983Z,1.63
2022-11-25T14:14:57.058Z,1.77
2022-11-25T14:17:46.162Z,2.10
2022-11-25T14:20:39.894Z,2.90
2022-11-25T14:23:36.281Z,2.07
2022-11-25T14:26:21.075Z,2.47
2022-11-25T14:29:00.003Z,2.37
2022-11-25T14:31:41.023Z,2.67
2022-11-25T14:34:12.416Z,4.30
2022-11-25T14:36:44.359Z,3.20
2022-11-25T14:39:25.765Z,3.73
2022-11-25T14:42:14.366Z,2.73
2022-11-25T14:44:58.714Z,3.10
2022-11-25T14:47:36.053Z,2.47
2022-11-25T14:52:56.501Z,2.40
2022-11-25T14:55:27.587Z,3.20
2022-11-25T14:57:57.713Z,2.63
2022-11-25T15:00:26.426Z,2.73
2022-11-25T15:03:02.914Z,2.80
2022-11-25T15:05:38.530Z,2.20
2022-11-25T15:08:18.149Z,2.87
2022-11-25T15:10:52.489Z,3.83
2022-11-25T15:14:03.315Z,3.70
2022-11-25T15:16:39.373Z,3.47
2022-11-25T15:19:18.278Z,3.00
2022-11-25T15:22:14.893Z,3.07
2022-11-25T15:24:48.934Z,2.87
2022-11-25T15:27:25.737Z,2.40
2022-11-25T15:29:55.129Z,3.33
2022-11-25T15:32:28.942Z,2.30
2022-11-25T15:34:58.660Z,2.63
2022-11-25T15:37:27.492Z,3.97
2022-11-25T15:40:32.995Z,3.87
2022-11-25T15:43:05.068Z,2.10
2022-11-25T15:45:58.047Z,3.87
2022-11-25T15:48:36.349Z,3.40
2022-11-25T15:51:07.110Z,2.50
2022-11-25T15:53:37.280Z,2.10
2022-11-25T15:56:07.114Z,2.03
2022-11-25T15:58:35.531Z,2.27
2022-11-25T16:01:18.631Z,2.10
2022-11-25T16:03:51.390Z,2.20
2022-11-25T16:06:30.499Z,2.17
2022-11-25T16:09:00.905Z,3.10
2022-11-25T16:11:44.673Z,3.27
2022-11-25T16:14:28.338Z,3.37
2022-11-25T16:17:02.395Z,3.17
2022-11-25T16:19:49.211Z,4.53
2022-11-25T16:22:21.975Z,3.33
2022-11-25T16:24:54.751Z,3.03
2022-11-25T16:27:27.421Z,5.50
2022-11-25T16:30:07.219Z,5.90
2022-11-25T16:32:37.249Z,5.90
2022-11-25T16:35:15.852Z,7.70
2022-11-25T16:37:48.758Z,9.17
2022-11-25T16:40:19.313Z,8.63
2022-11-25T16:42:48.845Z,5.90
2022-11-25T16:45:26.110Z,5.97
2022-11-25T16:48:03.284Z,5.13
2022-11-25T16:50:36.394Z,4.23
2022-11-25T16:53:04.847Z,3.63
2022-11-25T16:55:34.089Z,2.70
2022-11-25T16:58:02.599Z,2.97
2022-11-25T17:00:32.887Z,3.20
2022-11-25T17:03:04.271Z,4.87
2022-11-25T17:05:38.840Z,3.27
2022-11-25T17:08:08.408Z,8.97
2022-11-25T17:10:38.569Z,6.40
2022-11-25T17:13:07.590Z,8.63
2022-11-25T17:15:37.181Z,10.00
2022-11-25T17:18:10.065Z,17.67
2022-11-25T17:20:43.597Z,9.97
2022-11-25T17:23:18.801Z,6.77
2022-11-25T17:25:48.890Z,6.43
2022-11-25T17:28:18.471Z,6.07
2022-11-25T17:30:49.594Z,9.60
2022-11-25T17:33:21.966Z,5.23
2022-11-25T17:35:51.394Z,4.90
2022-11-25T17:38:21.454Z,4.97
2022-11-25T17:40:51.782Z,5.17
2022-11-25T17:43:24.298Z,5.77
2022-11-25T17:45:52.859Z,6.10
2022-11-25T17:48:23.881Z,5.03
2022-11-25T17:50:52.820Z,6.47
2022-11-25T17:53:23.408Z,6.70
2022-11-25T17:56:01.111Z,6.07
2022-11-25T17:58:32.626Z,11.53
2022-11-25T18:01:03.957Z,8.43
2022-11-25T18:03:33.350Z,5.87
2022-11-25T18:06:03.455Z,6.53
2022-11-25T18:08:33.492Z,5.27
2022-11-25T18:11:03.624Z,7.10
2022-11-25T18:13:36.235Z,6.83
2022-11-25T18:16:05.728Z,6.77
2022-11-25T18:18:35.016Z,6.27
2022-11-25T18:21:05.267Z,3.93
2022-11-25T18:23:33.953Z,4.13
2022-11-25T18:26:09.603Z,4.07
2022-11-25T18:28:43.140Z,3.90
2022-11-25T18:31:13.827Z,3.63
2022-11-25T18:33:44.274Z,5.13
2022-11-25T18:36:16.209Z,4.30
2022-11-25T18:38:50.482Z,3.57
2022-11-25T18:41:26.976Z,3.20
2022-11-25T18:43:58.660Z,2.67
2022-11-25T18:46:38.624Z,4.77
2022-11-25T18:49:14.938Z,3.33
2022-11-25T18:51:45.048Z,2.97
2022-11-25T18:54:13.903Z,5.07
2022-11-25T18:56:45.512Z,3.67
2022-11-25T18:59:16.533Z,4.10
2022-11-25T19:01:49.657Z,3.33
2022-11-25T19:04:18.383Z,4.13
2022-11-25T19:06:47.132Z,4.50
2022-11-25T19:09:17.234Z,4.50
2022-11-25T19:11:48.244Z,3.03
2022-11-25T19:14:28.009Z,4.87
2022-11-25T19:17:01.817Z,8.57
2022-11-25T19:19:31.492Z,4.33
2022-11-25T19:22:15.243Z,4.07
2022-11-25T19:24:43.853Z,5.37
2022-11-25T19:27:21.969Z,5.87
2022-11-25T19:29:54.625Z,5.47
2022-11-25T19:32:29.673Z,6.40
2022-11-25T19:35:06.360Z,5.57
2022-11-25T19:37:36.136Z,6.03
2022-11-25T19:40:09.530Z,4.70
2022-11-25T19:42:38.351Z,3.13
2022-11-25T19:45:08.087Z,2.03
2022-11-25T19:47:37.495Z,2.70
2022-11-25T19:50:06.840Z,4.13
2022-11-25T19:52:44.994Z,10.37
2022-11-25T19:55:18.617Z,10.43
2022-11-25T19:57:50.832Z,11.73
2022-11-25T20:00:24.183Z,5.07
2022-11-25T20:02:54.272Z,4.03
2022-11-25T20:05:31.191Z,4.37
2022-11-25T20:07:59.968Z,5.60
2022-11-25T20:10:33.282Z,5.77
2022-11-25T20:13:02.493Z,3.17
2022-11-25T20:15:32.365Z,2.50
2022-11-25T20:18:01.146Z,2.50
2022-11-25T20:20:40.555Z,3.43
2022-11-25T20:23:32.345Z,2.80
2022-11-25T20:26:03.576Z,3.17
2022-11-25T20:28:32.829Z,2.37
2022-11-25T20:31:04.695Z,2.67
2022-11-25T20:33:34.257Z,2.87
2022-11-25T20:36:08.925Z,2.50
2022-11-25T20:38:37.798Z,2.63
2022-11-25T20:41:06.727Z,2.70
2022-11-25T20:43:39.221Z,2.83
2022-11-25T20:46:26.045Z,3.33
2022-11-25T20:48:56.271Z,2.60
2022-11-25T20:51:25.178Z,2.87
2022-11-25T20:53:59.623Z,3.23
2022-11-25T20:56:39.766Z,3.67
2022-11-25T20:59:18.711Z,3.63
2022-11-25T21:01:49.761Z,2.90
2022-11-25T21:04:19.652Z,2.00
2022-11-25T21:06:48.072Z,3.43
2022-11-25T21:09:24.585Z,4.27
2022-11-25T21:11:53.554Z,4.00
2022-11-25T21:14:21.965Z,5.17
2022-11-25T21:16:50.423Z,5.20
2022-11-25T21:19:22.516Z,5.87
2022-11-25T21:21:51.660Z,6.03
2022-11-25T21:24:21.863Z,4.70
2022-11-25T21:26:50.685Z,5.50
2022-11-25T21:29:19.013Z,5.43
2022-11-25T21:31:47.449Z,4.60
2022-11-25T21:34:16.566Z,5.87
2022-11-25T21:36:46.811Z,7.93
2022-11-25T21:39:25.254Z,8.23
2022-11-25T21:41:54.198Z,7.90
2022-11-25T21:44:41.900Z,8.13
2022-11-25T21:47:18.390Z,11.23
2022-11-25T21:49:47.073Z,8.60
2022-11-25T21:52:15.564Z,6.57
2022-11-25T21:54:44.175Z,4.90
2022-11-25T21:57:26.474Z,8.10
2022-11-25T21:59:56.244Z,5.53
2022-11-25T22:02:25.102Z,6.00
2022-11-25T22:04:53.625Z,5.20
2022-11-25T22:07:25.071Z,5.80
2022-11-25T22:09:56.738Z,5.97
2022-11-25T22:12:29.950Z,5.00
2022-11-25T22:14:59.472Z,4.90
2022-11-25T22:17:29.032Z,4.07
2022-11-25T22:19:57.551Z,4.30
2022-11-25T22:22:27.534Z,3.73
2022-11-25T22:24:55.955Z,3.30
2022-11-25T22:27:25.499Z,3.03
2022-11-25T22:29:53.731Z,4.00
2022-11-25T22:32:22.065Z,3.90
2022-11-25T22:34:50.417Z,5.03
2022-11-25T22:37:23.013Z,3.93
2022-11-25T22:39:51.531Z,2.97
2022-11-25T22:42:29.155Z,3.53
2022-11-25T22:44:57.762Z,3.77
2022-11-25T22:47:38.498Z,3.33
2022-11-25T22:50:12.736Z,3.80
2022-11-25T22:52:41.077Z,4.13
2022-11-25T22:55:20.317Z,3.33
2022-11-25T22:57:49.339Z,3.80
2022-11-25T23:00:26.095Z,2.67
2022-11-25T23:02:57.732Z,3.23
2022-11-25T23:05:32.628Z,2.43
2022-11-25T23:08:13.484Z,3.50
2022-11-25T23:10:43.354Z,2.83
2022-11-25T23:13:12.063Z,3.67
2022-11-25T23:15:41.851Z,3.70
2022-11-25T23:18:13.686Z,3.53
2022-11-25T23:20:41.975Z,5.87
2022-11-25T23:23:21.395Z,5.97
2022-11-25T23:25:50.509Z,5.80
2022-11-25T23:28:18.828Z,4.00
2022-11-25T23:30:52.315Z,2.73
2022-11-25T23:33:38.606Z,2.90
2022-11-25T23:36:09.072Z,2.83
2022-11-25T23:38:44.638Z,2.97
2022-11-25T23:41:19.171Z,2.80
2022-11-25T23:43:47.542Z,2.60
2022-11-25T23:46:17.617Z,2.70
2022-11-25T23:48:52.525Z,2.47
2022-11-25T23:51:22.982Z,2.60
2022-11-25T23:53:52.085Z,2.90
2022-11-25T23:56:20.389Z,3.20
2022-11-25T23:58:50.851Z,5.10
